Time;durP1;ratioP1;P1;durP2;ratioP2;P2;SDS_P1;SDS_P2;PMS_P1;PMS_P2;Temp;Humidity;BMP_temperature;BMP_pressure;BME280_temperature;BME280_humidity;BME280_pressure;Samples;Min_cycle;Max_cycle;Signal;HPM_P1;HPM_P2
2021/12/11 00:00:42;;;;;;;19.85;3.40;;;;;;;5.77;89.32;100538.59;5037196;28;19928;-51
2021/12/11 00:03:16;;;;;;;22.45;2.63;;;;;;;5.71;88.92;100549.38;5038686;28;20409;-50
2021/12/11 00:05:47;;;;;;;19.98;2.83;;;;;;;5.62;90.19;100545.34;5037179;28;20536;-52
2021/12/11 00:08:18;;;;;;;17.88;2.58;;;;;;;5.63;90.59;100551.47;5037162;28;20528;-51
2021/12/11 00:10:54;;;;;;;18.13;3.23;;;;;;;5.55;90.37;100555.28;5037139;28;20060;-51
2021/12/11 00:13:25;;;;;;;20.38;3.70;;;;;;;5.52;90.72;100555.41;5036955;28;20136;-52
2021/12/11 00:15:54;;;;;;;19.70;2.63;;;;;;;5.51;91.03;100560.72;5036887;28;20060;-52
2021/12/11 00:18:25;;;;;;;16.02;2.70;;;;;;;5.52;91.46;100560.66;5037726;28;20421;-51
2021/12/11 00:20:58;;;;;;;21.75;4.00;;;;;;;5.56;91.34;100572.78;5036994;28;20065;-52
2021/12/11 00:23:30;;;;;;;23.23;3.83;;;;;;;5.58;90.83;100565.69;5037085;28;20501;-52
2021/12/11 00:26:00;;;;;;;17.35;2.47;;;;;;;5.56;90.37;100559.63;5036776;28;20166;-50
2021/12/11 00:28:28;;;;;;;21.60;3.67;;;;;;;5.53;91.21;100561.50;5037272;28;20057;-51
2021/12/11 00:30:58;;;;;;;20.83;2.60;;;;;;;5.43;91.34;100566.31;5036926;28;20060;-49
2021/12/11 00:33:29;;;;;;;21.30;2.92;;;;;;;5.33;91.93;100570.19;5036878;28;20065;-52
2021/12/11 00:35:57;;;;;;;16.25;3.45;;;;;;;5.33;92.93;100570.19;5037075;28;20100;-50
2021/12/11 00:38:32;;;;;;;19.95;3.13;;;;;;;5.28;93.17;100572.13;5036817;28;20057;-52
2021/12/11 00:41:05;;;;;;;15.35;2.88;;;;;;;5.32;93.48;100569.34;5037406;28;20087;-52
2021/12/11 00:43:35;;;;;;;21.88;3.35;;;;;;;5.31;93.88;100577.28;5036501;28;20513;-52
2021/12/11 00:46:06;;;;;;;15.95;3.05;;;;;;;5.21;94.20;100575.03;5036720;28;20440;-51
2021/12/11 00:48:34;;;;;;;16.00;3.10;;;;;;;5.26;94.43;100593.28;5037493;28;20084;-52
2021/12/11 00:51:06;;;;;;;16.23;3.33;;;;;;;5.28;95.28;100583.53;5036849;28;20054;-52
2021/12/11 00:53:36;;;;;;;;;;;;;;;5.20;94.73;100583.81;5036945;28;20057;-52
2021/12/11 00:56:08;;;;;;;14.93;2.83;;;;;;;5.18;95.90;100580.41;5036795;28;19928;-52
2021/12/11 00:58:38;;;;;;;17.77;3.22;;;;;;;5.13;96.67;100578.88;5036219;28;20056;-52
2021/12/11 01:01:12;;;;;;;19.15;3.08;;;;;;;5.15;96.72;100585.78;5037609;28;20058;-52
2021/12/11 01:03:46;;;;;;;10.73;2.47;;;;;;;5.06;96.69;100588.78;5037079;28;20488;-52
2021/12/11 01:06:16;;;;;;;22.35;3.22;;;;;;;5.07;97.06;100603.63;5037493;28;20084;-52
2021/12/11 01:08:52;;;;;;;17.17;3.13;;;;;;;5.07;98.10;100610.66;5037136;28;20060;-51
2021/12/11 01:11:25;;;;;;;17.02;3.00;;;;;;;5.15;97.74;100608.59;5036324;28;20065;-52
2021/12/11 01:14:07;;;;;;;12.38;2.72;;;;;;;5.15;97.33;100614.69;5035847;28;20060;-52
2021/12/11 01:16:36;;;;;;;18.45;3.22;;;;;;;5.07;97.57;100616.75;5037354;28;20061;-52
2021/12/11 01:19:06;;;;;;;22.27;3.50;;;;;;;5.15;97.25;100619.13;5036335;28;20057;-52
2021/12/11 01:21:54;;;;;;;17.10;2.80;;;;;;;5.04;97.23;100624.75;5036096;28;20065;-51
2021/12/11 01:24:30;;;;;;;13.50;2.60;;;;;;;4.92;98.40;100631.31;5036527;28;20060;-52
2021/12/11 01:27:02;;;;;;;18.40;3.25;;;;;;;4.82;98.99;100628.22;5036608;28;20054;-52
2021/12/11 01:29:30;;;;;;;;;;;;;;;4.70;99.97;100626.00;5037078;28;20049;-52
2021/12/11 01:31:59;;;;;;;12.65;2.22;;;;;;;4.56;99.49;100631.75;5035728;28;20281;-52
2021/12/11 01:34:29;;;;;;;17.45;3.85;;;;;;;4.58;100.00;100634.31;5036951;28;20061;-51
2021/12/11 01:36:58;;;;;;;15.07;2.90;;;;;;;4.58;100.00;100637.81;5036007;28;20063;-51
2021/12/11 01:39:30;;;;;;;17.05;2.85;;;;;;;4.62;100.00;100633.28;5036519;28;20053;-51
2021/12/11 01:42:01;;;;;;;15.75;3.25;;;;;;;4.58;100.00;100636.94;5035445;28;20068;-52
2021/12/11 01:44:32;;;;;;;13.43;2.77;;;;;;;4.59;100.00;100634.28;5035372;28;20053;-52
2021/12/11 01:47:03;;;;;;;18.60;4.30;;;;;;;4.53;100.00;100633.63;5035321;28;20060;-52
2021/12/11 01:49:33;;;;;;;16.50;2.78;;;;;;;4.43;100.00;100646.22;5035289;28;20537;-50
2021/12/11 01:52:06;;;;;;;14.77;3.20;;;;;;;4.40;100.00;100641.06;5035398;28;20061;-52
2021/12/11 01:54:38;;;;;;;13.38;2.72;;;;;;;4.38;100.00;100642.91;5035176;28;20528;-51
2021/12/11 01:57:12;;;;;;;17.38;2.78;;;;;;;4.37;100.00;100649.94;5035408;28;20505;-51
2021/12/11 01:59:43;;;;;;;12.93;2.58;;;;;;;4.40;100.00;100651.56;5035644;28;20064;-52
2021/12/11 02:02:14;;;;;;;14.48;2.75;;;;;;;4.40;100.00;100662.09;5036142;28;20528;-51
2021/12/11 02:04:45;;;;;;;22.40;3.05;;;;;;;4.43;100.00;100672.50;5034985;28;20100;-51
2021/12/11 02:07:16;;;;;;;19.75;2.65;;;;;;;4.47;100.00;100663.56;5036101;28;20063;-51
2021/12/11 02:09:51;;;;;;;14.48;2.58;;;;;;;4.48;100.00;100670.56;5036253;28;20065;-52
2021/12/11 02:12:24;;;;;;;23.10;3.20;;;;;;;4.52;100.00;100668.69;5034783;28;20058;-52
2021/12/11 02:14:55;;;;;;;16.75;3.13;;;;;;;4.58;100.00;100671.09;5034761;28;20053;-52
2021/12/11 02:17:27;;;;;;;18.92;3.10;;;;;;;4.58;100.00;100673.75;5034921;28;20536;-52
2021/12/11 02:19:56;;;;;;;;;;;;;;;4.65;100.00;100680.50;5035991;28;20068;-52
2021/12/11 02:22:28;;;;;;;26.25;2.97;;;;;;;4.73;100.00;100681.09;5034333;28;19927;-51
2021/12/11 02:24:59;;;;;;;18.67;3.08;;;;;;;4.73;100.00;100686.34;5035466;28;20056;-52
2021/12/11 02:27:31;;;;;;;21.50;3.65;;;;;;;4.79;100.00;100678.25;5035669;28;20084;-52
2021/12/11 02:30:07;;;;;;;16.67;3.60;;;;;;;4.87;100.00;100674.47;5034478;28;20050;-51
2021/12/11 02:32:43;;;;;;;16.33;3.25;;;;;;;4.86;100.00;100672.75;5034689;28;20124;-52
2021/12/11 02:35:14;;;;;;;18.05;2.45;;;;;;;4.84;100.00;100678.06;5035309;28;20053;-52
2021/12/11 02:37:46;;;;;;;21.50;3.33;;;;;;;4.79;100.00;100686.13;5034385;28;20061;-52
2021/12/11 02:40:19;;;;;;;15.98;3.92;;;;;;;4.68;100.00;100688.28;5034306;28;20053;-51
2021/12/11 02:42:52;;;;;;;16.23;3.38;;;;;;;4.64;100.00;100684.03;5035164;28;20061;-52
2021/12/11 02:45:24;;;;;;;21.40;3.28;;;;;;;4.57;100.00;100680.78;5034241;28;20053;-52
2021/12/11 02:47:57;;;;;;;13.98;4.32;;;;;;;4.54;100.00;100685.25;5034197;28;20057;-50
2021/12/11 02:50:32;;;;;;;19.02;5.32;;;;;;;4.50;100.00;100681.88;5034438;28;20073;-52
2021/12/11 02:53:08;;;;;;;20.13;4.40;;;;;;;4.49;100.00;100692.44;5034069;28;20065;-51
2021/12/11 02:55:41;;;;;;;25.17;4.47;;;;;;;4.37;100.00;100699.84;5034109;28;20083;-52
2021/12/11 02:58:14;;;;;;;19.85;4.07;;;;;;;4.43;100.00;100702.22;5034052;28;20065;-51
2021/12/11 03:00:46;;;;;;;21.17;4.22;;;;;;;4.58;100.00;100702.63;5034801;28;20053;-51
2021/12/11 03:03:16;;;;;;;16.65;2.92;;;;;;;4.67;100.00;100702.31;5034025;28;20061;-52
2021/12/11 03:05:52;;;;;;;15.77;3.45;;;;;;;4.68;100.00;100704.03;5034216;28;20061;-52
2021/12/11 03:08:22;;;;;;;18.67;4.32;;;;;;;4.73;100.00;100702.09;5034832;28;20404;-51
2021/12/11 03:10:58;;;;;;;21.27;3.78;;;;;;;4.77;100.00;100708.97;5034160;28;20064;-51
2021/12/11 03:13:29;;;;;;;15.48;4.00;;;;;;;4.70;100.00;100702.22;5033777;28;20064;-52
2021/12/11 03:15:58;;;;;;;19.13;3.40;;;;;;;4.57;100.00;100700.91;5035011;28;20065;-52
2021/12/11 03:18:26;;;;;;;16.38;3.03;;;;;;;4.46;100.00;100703.91;5034358;28;20057;-51
2021/12/11 03:20:55;;;;;;;22.52;4.03;;;;;;;4.49;100.00;100697.69;5034080;28;20065;-52
2021/12/11 03:23:25;;;;;;;16.67;4.47;;;;;;;4.55;100.00;100697.47;5033985;28;20061;-52
2021/12/11 03:25:53;;;;;;;21.73;3.60;;;;;;;4.51;100.00;100703.75;5034266;28;20073;-52
2021/12/11 03:28:22;;;;;;;17.45;2.65;;;;;;;4.44;100.00;100717.09;5033953;28;20065;-52
2021/12/11 03:30:56;;;;;;;19.20;3.78;;;;;;;4.33;100.00;100708.69;5034527;28;20064;-52
2021/12/11 03:33:26;;;;;;;18.30;2.67;;;;;;;4.33;100.00;100716.59;5036118;28;20112;-52
2021/12/11 03:35:55;;;;;;;22.23;3.38;;;;;;;4.35;100.00;100716.53;5038779;28;20057;-52
2021/12/11 03:38:26;;;;;;;20.45;2.55;;;;;;;4.43;100.00;100720.63;5038768;28;20053;-52
2021/12/11 03:40:55;;;;;;;26.63;3.17;;;;;;;4.50;100.00;100716.03;5037648;28;20058;-52
2021/12/11 03:43:25;;;;;;;22.52;2.65;;;;;;;4.53;100.00;100708.03;5039050;28;20061;-51
2021/12/11 03:45:55;;;;;;;16.17;2.47;;;;;;;4.59;100.00;100710.47;5038739;28;20061;-51
2021/12/11 03:48:27;;;;;;;22.50;3.00;;;;;;;4.62;100.00;100705.13;5038986;28;20068;-51
2021/12/11 03:50:56;;;;;;;23.48;2.97;;;;;;;4.65;100.00;100709.41;5037506;28;20053;-52
2021/12/11 03:53:28;;;;;;;25.00;3.03;;;;;;;4.65;100.00;100717.28;5037620;28;20501;-52
2021/12/11 03:55:58;;;;;;;16.85;3.05;;;;;;;4.69;100.00;100721.53;5037665;28;20064;-52
2021/12/11 03:58:27;;;;;;;20.83;3.00;;;;;;;4.71;100.00;100722.34;5038485;28;20057;-52
2021/12/11 04:00:58;;;;;;;14.35;2.80;;;;;;;4.59;100.00;100720.09;5038683;28;20400;-52
2021/12/11 04:03:30;;;;;;;13.20;2.33;;;;;;;4.55;100.00;100718.50;5037547;28;20468;-52
2021/12/11 04:06:00;;;;;;;19.25;2.40;;;;;;;4.51;100.00;100714.28;5037202;28;20057;-52
2021/12/11 04:08:34;;;;;;;21.75;2.72;;;;;;;4.42;100.00;100723.28;5037473;28;20057;-52
2021/12/11 04:11:02;;;;;;;30.23;4.05;;;;;;;4.33;100.00;100724.47;5037121;28;20061;-52
2021/12/11 04:13:30;;;;;;;21.23;3.97;;;;;;;4.38;100.00;100725.16;5037892;28;20049;-52
2021/12/11 04:15:58;;;;;;;23.30;3.50;;;;;;;4.38;100.00;100719.91;5037897;28;20058;-52
2021/12/11 04:18:27;;;;;;;21.25;3.28;;;;;;;4.49;100.00;100730.09;5037475;28;20057;-52
2021/12/11 04:20:55;;;;;;;18.55;2.50;;;;;;;4.57;100.00;100728.06;5037514;28;20073;-52
2021/12/11 04:23:23;;;;;;;21.20;3.17;;;;;;;4.60;100.00;100745.47;5037121;28;20049;-51
2021/12/11 04:25:55;;;;;;;21.95;3.95;;;;;;;4.57;100.00;100740.31;5037381;28;20054;-51
2021/12/11 04:28:24;;;;;;;21.83;3.42;;;;;;;4.60;100.00;100748.09;5036775;28;20065;-51
2021/12/11 04:30:54;;;;;;;50.17;6.50;;;;;;;4.57;100.00;100749.09;5036965;28;20058;-52
2021/12/11 04:33:23;;;;;;;25.85;3.60;;;;;;;4.53;100.00;100749.22;5037520;28;20053;-52
2021/12/11 04:35:51;;;;;;;20.27;3.17;;;;;;;4.35;100.00;100754.16;5036801;28;20066;-52
2021/12/11 04:38:19;;;;;;;17.20;2.40;;;;;;;4.40;100.00;100752.25;5036839;28;20053;-51
2021/12/11 04:40:52;;;;;;;24.75;2.55;;;;;;;4.28;100.00;100765.78;5037363;28;20064;-52
2021/12/11 04:43:24;;;;;;;29.27;4.13;;;;;;;4.23;100.00;100760.66;5037973;28;20060;-51
2021/12/11 04:45:55;;;;;;;16.95;3.13;;;;;;;4.20;100.00;100767.78;5036830;28;20066;-49
2021/12/11 04:48:33;;;;;;;21.60;3.42;;;;;;;4.13;100.00;100766.25;5036774;28;20096;-52
2021/12/11 04:51:11;;;;;;;20.15;3.85;;;;;;;4.14;100.00;100754.88;5036408;28;20054;-52
2021/12/11 04:53:52;;;;;;;29.60;3.63;;;;;;;4.10;100.00;100754.06;5036904;28;20084;-52
2021/12/11 04:59:35;;;;;;;18.50;2.83;;;;;;;3.94;100.00;100761.59;5153789;27;20165;-50
2021/12/11 05:02:31;;;;;;;21.25;1.90;;;;;;;3.88;100.00;100764.38;5132310;27;20055;-49
2021/12/11 05:05:11;;;;;;;27.35;3.10;;;;;;;3.85;100.00;100759.22;5132800;28;20055;-49
2021/12/11 05:07:45;;;;;;;23.60;4.20;;;;;;;3.90;100.00;100766.06;5132128;28;20510;-49
2021/12/11 05:10:19;;;;;;;20.90;2.47;;;;;;;3.96;100.00;100769.41;5133629;27;20056;-50
2021/12/11 05:12:51;;;;;;;24.70;3.25;;;;;;;3.95;100.00;100759.81;5132373;28;20056;-50
2021/12/11 05:15:23;;;;;;;10.95;2.28;;;;;;;3.92;100.00;100760.78;5132710;27;20047;-49
2021/12/11 05:17:51;;;;;;;25.08;4.03;;;;;;;3.82;100.00;100761.97;5132798;27;20051;-49
2021/12/11 05:20:22;;;;;;;13.70;3.10;;;;;;;3.80;100.00;100766.38;5132118;28;20051;-50
2021/12/11 05:22:50;;;;;;;22.58;3.75;;;;;;;3.74;100.00;100766.59;5132768;27;20055;-50
2021/12/11 05:25:19;;;;;;;20.60;2.75;;;;;;;3.76;100.00;100764.75;5133308;27;20055;-49
2021/12/11 05:27:47;;;;;;;23.05;3.42;;;;;;;3.62;100.00;100747.66;5132070;27;20060;-50
2021/12/11 05:30:20;;;;;;;22.70;3.05;;;;;;;3.76;100.00;100762.13;5132314;27;20063;-50
2021/12/11 05:32:49;;;;;;;;;;;;;;;3.65;100.00;100768.56;5133664;27;20445;-51
2021/12/11 05:35:18;;;;;;;18.70;2.78;;;;;;;3.67;100.00;100777.25;5132593;27;19990;-50
2021/12/11 05:37:46;;;;;;;25.92;3.60;;;;;;;3.68;100.00;100778.97;5132358;27;20058;-52
2021/12/11 05:40:19;;;;;;;17.42;2.15;;;;;;;3.69;100.00;100785.94;5132425;27;20055;-52
2021/12/11 05:42:47;;;;;;;22.85;2.72;;;;;;;3.72;100.00;100783.22;5132275;27;20120;-51
2021/12/11 05:45:16;;;;;;;16.65;1.77;;;;;;;3.75;100.00;100779.66;5132384;27;20070;-52
2021/12/11 05:47:44;;;;;;;14.27;2.53;;;;;;;3.81;100.00;100784.69;5132512;28;20051;-52
2021/12/11 05:50:19;;;;;;;13.00;2.65;;;;;;;3.88;100.00;100781.00;5131631;27;20052;-50
2021/12/11 05:52:48;;;;;;;24.77;2.80;;;;;;;3.84;100.00;100789.00;5131280;28;20063;-52
2021/12/11 05:55:19;;;;;;;16.63;2.65;;;;;;;3.89;100.00;100789.75;5132045;27;20055;-52
2021/12/11 05:57:53;;;;;;;21.95;3.08;;;;;;;3.97;100.00;100798.25;5132352;27;20064;-52
2021/12/11 06:00:25;;;;;;;18.30;3.25;;;;;;;4.01;100.00;100807.72;5131429;28;20056;-52
2021/12/11 06:02:58;;;;;;;20.63;2.95;;;;;;;4.07;100.00;100799.69;5131014;28;20055;-52
2021/12/11 06:05:28;;;;;;;17.75;2.75;;;;;;;4.06;100.00;100778.72;5131651;28;20056;-52
2021/12/11 06:07:57;;;;;;;20.38;2.80;;;;;;;4.31;100.00;100805.06;5131273;27;20070;-52
2021/12/11 06:10:26;;;;;;;21.92;2.90;;;;;;;4.35;100.00;100811.09;5118801;27;20055;-52
2021/12/11 06:12:57;;;;;;;13.95;2.47;;;;;;;4.38;100.00;100816.25;5117412;28;20136;-52
2021/12/11 06:15:26;;;;;;;32.40;3.10;;;;;;;4.42;100.00;100813.50;5117272;28;20062;-52
2021/12/11 06:17:55;;;;;;;30.75;3.25;;;;;;;4.51;100.00;100795.72;5117312;28;20056;-54
2021/12/11 06:20:28;;;;;;;19.10;2.70;;;;;;;4.64;100.00;100802.28;5117670;28;20055;-53
2021/12/11 06:23:03;;;;;;;22.95;2.95;;;;;;;4.76;100.00;100815.03;5118463;28;20448;-52
2021/12/11 06:25:34;;;;;;;23.55;2.35;;;;;;;4.86;100.00;100817.31;5117850;28;20048;-50
2021/12/11 06:28:03;;;;;;;22.20;2.28;;;;;;;4.95;100.00;100822.28;5116931;28;20063;-51
2021/12/11 06:30:31;;;;;;;19.35;2.55;;;;;;;4.99;100.00;100814.25;5117152;28;20526;-52
2021/12/11 06:33:00;;;;;;;16.42;2.55;;;;;;;5.03;100.00;100813.22;5117079;28;20071;-52
2021/12/11 06:35:36;;;;;;;25.70;3.28;;;;;;;5.08;100.00;100818.34;5118299;28;20138;-53
2021/12/11 06:38:05;;;;;;;24.77;2.72;;;;;;;5.10;100.00;100827.03;5117421;28;20066;-52
2021/12/11 06:40:33;;;;;;;22.17;2.60;;;;;;;4.99;100.00;100823.88;5116980;28;20059;-52
2021/12/11 06:43:01;;;;;;;21.15;3.40;;;;;;;5.18;100.00;100834.66;5117191;28;20152;-52
2021/12/11 06:45:30;;;;;;;17.40;2.67;;;;;;;5.21;100.00;100835.41;5116701;28;20056;-52
2021/12/11 06:47:58;;;;;;;18.33;2.72;;;;;;;5.25;100.00;100845.81;5117166;28;20055;-52
2021/12/11 06:50:26;;;;;;;19.27;2.58;;;;;;;5.21;100.00;100840.66;5117940;28;20055;-52
2021/12/11 06:52:57;;;;;;;18.50;2.88;;;;;;;5.24;100.00;100854.63;5117017;27;20058;-52
2021/12/11 06:55:25;;;;;;;21.70;3.13;;;;;;;5.25;100.00;100843.19;5117632;28;20071;-52
2021/12/11 06:57:54;;;;;;;24.85;3.88;;;;;;;5.25;100.00;100835.31;5116884;28;20066;-52
2021/12/11 07:00:28;;;;;;;18.80;3.38;;;;;;;5.28;100.00;100850.97;5116575;28;20536;-52
2021/12/11 07:02:57;;;;;;;19.75;3.97;;;;;;;5.20;100.00;100846.81;5116523;28;20058;-52
2021/12/11 07:05:26;;;;;;;28.73;5.75;;;;;;;5.17;100.00;100844.31;5116236;28;20052;-52
2021/12/11 07:07:55;;;;;;;32.92;7.07;;;;;;;5.14;100.00;100844.41;5116726;28;20493;-52
2021/12/11 07:10:24;;;;;;;27.70;5.47;;;;;;;5.20;100.00;100852.09;5116399;28;20056;-52
2021/12/11 07:12:52;;;;;;;34.22;6.38;;;;;;;5.29;100.00;100852.69;5116244;28;20059;-52
2021/12/11 07:15:20;;;;;;;13.38;2.97;;;;;;;5.37;100.00;100862.03;5117107;28;20055;-52
2021/12/11 07:17:48;;;;;;;16.02;2.72;;;;;;;5.40;100.00;100855.81;5116550;28;20055;-52
2021/12/11 07:20:17;;;;;;;18.25;3.78;;;;;;;5.42;100.00;100853.97;5116459;28;20392;-51
2021/12/11 07:22:45;;;;;;;17.85;4.68;;;;;;;5.42;100.00;100848.72;5115672;28;20058;-52
2021/12/11 07:25:19;;;;;;;27.02;4.88;;;;;;;5.35;100.00;100847.22;5116056;28;20070;-52
2021/12/11 07:27:47;;;;;;;21.02;3.00;;;;;;;5.49;100.00;100849.34;5115827;28;20067;-53
2021/12/11 07:30:16;;;;;;;16.70;3.78;;;;;;;5.57;100.00;100852.59;5115899;28;20426;-52
2021/12/11 07:32:45;;;;;;;19.73;3.05;;;;;;;5.65;100.00;100857.56;5116251;28;20549;-52
2021/12/11 07:35:13;;;;;;;21.85;3.78;;;;;;;5.67;100.00;100853.13;5115660;27;20066;-52
2021/12/11 07:37:47;;;;;;;22.85;3.80;;;;;;;5.68;100.00;100852.19;5116144;28;20521;-52
2021/12/11 07:40:18;;;;;;;19.75;3.72;;;;;;;5.73;100.00;100847.59;5115498;28;20510;-52
2021/12/11 07:42:47;;;;;;;21.10;3.05;;;;;;;5.78;100.00;100848.28;5115845;28;20067;-52
2021/12/11 07:45:16;;;;;;;17.10;3.70;;;;;;;5.82;100.00;100852.56;5115387;28;20052;-52
2021/12/11 07:47:45;;;;;;;23.02;4.57;;;;;;;5.84;100.00;100857.75;5115654;28;20070;-52
2021/12/11 07:50:13;;;;;;;22.90;4.82;;;;;;;5.84;100.00;100855.97;5115876;28;20055;-52
2021/12/11 07:52:42;;;;;;;10.43;3.38;;;;;;;5.89;100.00;100867.19;5115478;28;20419;-51
2021/12/11 07:55:11;;;;;;;15.98;3.92;;;;;;;5.92;100.00;100853.94;5116730;28;20070;-52
2021/12/11 07:57:41;;;;;;;21.95;5.10;;;;;;;5.89;100.00;100858.44;5115569;28;20189;-52
2021/12/11 08:00:11;;;;;;;25.48;4.10;;;;;;;5.89;100.00;100866.34;5115314;28;20503;-52
2021/12/11 08:02:39;;;;;;;21.77;4.47;;;;;;;5.91;100.00;100868.00;5115996;28;20082;-52
2021/12/11 08:05:08;;;;;;;22.30;4.80;;;;;;;5.93;100.00;100865.31;5115075;28;20087;-53
2021/12/11 08:07:37;;;;;;;20.25;3.85;;;;;;;5.96;100.00;100865.22;5115260;28;20047;-51
2021/12/11 08:10:06;;;;;;;17.65;3.45;;;;;;;5.97;100.00;100871.34;5116096;28;20059;-52
2021/12/11 08:12:34;;;;;;;23.48;5.15;;;;;;;5.96;100.00;100870.50;5115335;28;20058;-52
2021/12/11 08:15:06;;;;;;;16.92;4.03;;;;;;;5.95;100.00;100872.25;5115155;28;20057;-52
2021/12/11 08:17:34;;;;;;;22.70;6.10;;;;;;;6.05;100.00;100879.81;5115982;28;20066;-52
2021/12/11 08:20:02;;;;;;;24.63;4.70;;;;;;;6.07;100.00;100875.34;5116075;28;20324;-52
2021/12/11 08:22:30;;;;;;;19.38;3.50;;;;;;;6.16;100.00;100888.19;5114970;28;20447;-52
2021/12/11 08:24:59;;;;;;;21.67;3.88;;;;;;;6.26;100.00;100879.00;5114616;28;20062;-52
2021/12/11 08:27:27;;;;;;;18.60;2.92;;;;;;;6.30;100.00;100874.47;5115441;28;20055;-52
2021/12/11 08:29:55;;;;;;;23.40;3.28;;;;;;;6.33;100.00;100880.50;5115417;27;20059;-52
2021/12/11 08:32:26;;;;;;;16.67;3.35;;;;;;;6.33;100.00;100884.91;5111071;28;20064;-52
2021/12/11 08:34:55;;;;;;;26.95;3.55;;;;;;;6.24;100.00;100886.13;5114462;28;20108;-52
2021/12/11 08:37:24;;;;;;;22.60;3.50;;;;;;;6.24;100.00;100896.66;5115893;28;20052;-51
2021/12/11 08:39:53;;;;;;;14.85;3.50;;;;;;;6.30;100.00;100891.16;5114960;28;20059;-53
2021/12/11 08:42:24;;;;;;;19.75;5.22;;;;;;;6.43;100.00;100898.59;5114672;28;20063;-51
2021/12/11 08:45:03;;;;;;;17.77;3.63;;;;;;;6.42;100.00;100899.50;5115256;28;20066;-49
2021/12/11 08:47:35;;;;;;;17.98;3.40;;;;;;;6.51;100.00;100904.44;5114736;28;20070;-52
2021/12/11 08:50:05;;;;;;;28.27;4.20;;;;;;;6.57;100.00;100901.53;5115812;28;20438;-51
2021/12/11 08:52:36;;;;;;;27.73;3.47;;;;;;;6.70;100.00;100912.47;5114648;28;20062;-52
2021/12/11 08:55:14;;;;;;;17.63;3.33;;;;;;;6.87;100.00;100914.44;5115733;28;20432;-52
2021/12/11 08:57:43;;;;;;;22.70;4.13;;;;;;;6.89;100.00;100920.50;5115057;28;20059;-52
2021/12/11 09:00:15;;;;;;;22.92;4.28;;;;;;;6.95;100.00;100936.09;5114578;28;20116;-52
2021/12/11 09:02:47;;;;;;;16.15;3.00;;;;;;;7.04;100.00;100930.44;5115054;28;20059;-52
2021/12/11 09:05:21;;;;;;;23.25;3.70;;;;;;;7.09;100.00;100932.03;5115385;28;20100;-50
2021/12/11 09:07:52;;;;;;;19.67;4.18;;;;;;;7.14;100.00;100935.34;5115074;28;20062;-51
2021/12/11 09:10:26;;;;;;;22.02;3.90;;;;;;;7.17;100.00;100935.22;5115140;28;20059;-51
2021/12/11 09:13:01;;;;;;;22.35;5.13;;;;;;;7.28;100.00;100948.84;5115098;28;20051;-52
2021/12/11 09:15:32;;;;;;;19.23;4.35;;;;;;;7.35;100.00;100955.56;5114092;28;20063;-52
2021/12/11 09:18:07;;;;;;;20.40;3.60;;;;;;;7.38;100.00;100955.44;5115573;28;20063;-52
2021/12/11 09:20:40;;;;;;;21.45;3.75;;;;;;;7.45;100.00;100956.03;5114670;28;20066;-52
2021/12/11 09:23:13;;;;;;;20.17;3.42;;;;;;;7.54;100.00;100955.66;5115154;28;20078;-52
2021/12/11 09:25:46;;;;;;;26.88;4.07;;;;;;;7.61;100.00;100962.38;5114362;28;20060;-51
2021/12/11 09:28:17;;;;;;;23.02;3.95;;;;;;;7.73;100.00;100961.00;5114030;28;20063;-50
2021/12/11 09:30:49;;;;;;;13.25;3.72;;;;;;;7.85;100.00;100969.31;5114835;28;20513;-51
2021/12/11 09:33:23;;;;;;;18.83;3.03;;;;;;;7.96;100.00;100961.78;5113978;28;20062;-50
2021/12/11 09:35:54;;;;;;;19.98;3.22;;;;;;;8.06;100.00;100963.09;5114301;28;20052;-51
2021/12/11 09:38:25;;;;;;;26.88;3.72;;;;;;;8.25;99.01;100963.13;5114487;28;20495;-51
2021/12/11 09:40:53;;;;;;;23.33;4.13;;;;;;;8.36;97.67;100958.22;5113869;28;20055;-51
2021/12/11 09:43:38;;;;;;;17.70;3.88;;;;;;;8.45;97.86;100970.19;5115087;28;20056;-51
2021/12/11 09:46:09;;;;;;;19.45;4.70;;;;;;;8.55;97.20;100970.63;5118713;28;20058;-50
2021/12/11 09:48:39;;;;;;;25.25;4.30;;;;;;;8.65;97.21;100971.06;5119111;28;20067;-51
2021/12/11 09:51:12;;;;;;;25.40;5.22;;;;;;;8.65;97.24;100971.91;5118597;28;20094;-51
2021/12/11 09:53:43;;;;;;;27.00;4.45;;;;;;;8.79;96.12;100976.53;5118432;28;20066;-50
2021/12/11 09:56:16;;;;;;;23.15;5.05;;;;;;;8.81;96.21;100977.34;5119017;28;20059;-50
2021/12/11 09:58:45;;;;;;;17.60;3.17;;;;;;;8.88;95.32;100968.19;5118372;28;20525;-51
2021/12/11 10:01:16;;;;;;;20.25;3.22;;;;;;;8.99;94.99;100966.81;5118493;28;20087;-50
2021/12/11 10:03:53;;;;;;;17.67;2.90;;;;;;;9.08;94.56;100963.72;5117738;27;20052;-51
2021/12/11 10:06:42;;;;;;;12.90;3.60;;;;;;;9.13;94.80;100967.00;5117388;28;20047;-50
2021/12/11 10:09:19;;;;;;;20.88;2.75;;;;;;;9.30;93.43;100974.13;5118220;28;20052;-51
2021/12/11 10:11:56;;;;;;;15.23;3.47;;;;;;;9.34;93.20;100985.41;5118187;28;20056;-51
2021/12/11 10:14:30;;;;;;;21.55;2.95;;;;;;;9.27;92.56;100979.56;5118388;28;20306;-51
2021/12/11 10:17:01;;;;;;;14.98;3.80;;;;;;;9.28;92.87;100982.13;5117104;28;20574;-51
2021/12/11 10:19:30;;;;;;;22.15;3.33;;;;;;;9.30;92.45;100980.25;5118037;28;20113;-50
2021/12/11 10:22:04;;;;;;;16.80;2.97;;;;;;;9.40;92.39;100982.47;5117578;27;20047;-51
2021/12/11 10:24:34;;;;;;;24.75;2.97;;;;;;;9.42;91.86;100980.59;5117315;28;20051;-51
2021/12/11 10:27:07;;;;;;;39.20;4.50;;;;;;;9.45;91.49;100977.78;5116994;28;20062;-51
2021/12/11 10:29:37;;;;;;;25.20;3.83;;;;;;;9.54;90.74;100974.66;5116905;28;20070;-51
2021/12/11 10:32:09;;;;;;;17.52;3.30;;;;;;;9.54;90.22;100976.47;5117077;28;20518;-51
2021/12/11 10:34:40;;;;;;;17.30;3.20;;;;;;;9.63;91.09;100986.59;5118017;28;20056;-50
2021/12/11 10:37:12;;;;;;;21.35;2.60;;;;;;;9.66;90.65;100981.97;5116867;28;20052;-51
2021/12/11 10:39:44;;;;;;;16.88;2.67;;;;;;;9.62;91.02;100979.59;5117681;28;20056;-51
2021/12/11 10:42:13;;;;;;;16.23;3.05;;;;;;;9.79;90.49;100984.03;5116648;28;20059;-51
2021/12/11 10:44:46;;;;;;;26.50;4.28;;;;;;;9.90;89.42;100981.69;5118063;28;20056;-49
2021/12/11 10:47:19;;;;;;;18.13;3.35;;;;;;;10.06;89.33;100980.88;5116597;28;20063;-51
2021/12/11 10:50:10;;;;;;;19.33;4.68;;;;;;;10.26;87.17;100986.00;5116804;28;20058;-51
2021/12/11 10:52:39;;;;;;;24.45;4.35;;;;;;;10.35;86.46;100982.88;5116779;28;20498;-51
2021/12/11 10:55:12;;;;;;;17.77;3.85;;;;;;;10.26;87.53;100991.28;5117831;28;20059;-51
2021/12/11 10:57:41;;;;;;;22.27;5.38;;;;;;;10.28;86.40;100988.56;5116693;27;20077;-51
2021/12/11 11:00:19;;;;;;;24.80;3.92;;;;;;;10.34;86.96;100994.44;5116447;28;20491;-51
2021/12/11 11:02:47;;;;;;;16.80;3.00;;;;;;;10.25;87.25;100989.56;5116243;28;20052;-51
2021/12/11 11:05:18;;;;;;;15.93;4.40;;;;;;;10.30;87.89;100987.53;5116160;28;20056;-51
2021/12/11 11:07:47;;;;;;;27.75;6.63;;;;;;;10.40;87.00;100988.78;5117297;28;20052;-51
2021/12/11 11:10:19;;;;;;;9.55;2.70;;;;;;;10.33;87.27;100982.09;5116696;28;20056;-51
2021/12/11 11:12:48;;;;;;;12.52;2.50;;;;;;;10.24;86.91;100982.56;5116071;28;20138;-51
2021/12/11 11:15:21;;;;;;;19.27;2.85;;;;;;;10.20;88.59;100979.22;5117495;28;20056;-51
2021/12/11 11:17:51;;;;;;;19.73;2.70;;;;;;;10.30;87.84;100984.88;5115934;28;20139;-50
2021/12/11 11:20:23;;;;;;;19.38;2.60;;;;;;;10.38;88.71;100984.50;5115819;28;20052;-49
2021/12/11 11:22:52;;;;;;;12.70;2.40;;;;;;;10.32;89.01;100980.41;5116543;28;20055;-51
2021/12/11 11:25:24;;;;;;;13.45;2.47;;;;;;;10.26;90.15;100980.69;5115866;28;20051;-51
2021/12/11 11:27:56;;;;;;;;;;;;;;;10.19;91.18;100977.50;5117089;28;20055;-51
2021/12/11 11:30:32;;;;;;;13.93;1.92;;;;;;;10.12;90.23;100969.94;5115748;28;19919;-50
2021/12/11 11:33:02;;;;;;;10.23;1.92;;;;;;;10.00;92.09;100961.72;5115554;28;20529;-51
2021/12/11 11:35:32;;;;;;;13.52;2.35;;;;;;;10.11;92.47;100960.31;5117138;28;20055;-50
2021/12/11 11:38:03;;;;;;;11.45;2.15;;;;;;;10.07;92.45;100964.91;5116352;28;20556;-51
2021/12/11 11:40:38;;;;;;;11.35;1.90;;;;;;;10.10;92.73;100954.13;5115475;28;20526;-50